Time;durP1;ratioP1;P1;durP2;ratioP2;P2;SDS_P1;SDS_P2;PMS_P1;PMS_P2;Temp;Humidity;BMP_temperature;BMP_pressure;BME280_temperature;BME280_humidity;BME280_pressure;Samples;Min_cycle;Max_cycle;Signal;HPM_P1;HPM_P2
2021/03/20 00:00:21;;;;;;;4.60;4.20;;;21.80;50.20;;;;;;5028744;28;20782;-85
2021/03/20 00:02:50;;;;;;;7.63;5.90;;;21.80;50.20;;;;;;5027173;28;20486;-85
2021/03/20 00:05:16;;;;;;;5.83;5.13;;;21.80;51.00;;;;;;5027732;28;20447;-85
2021/03/20 00:07:59;;;;;;;5.43;4.73;;;21.80;50.60;;;;;;5026563;28;20454;-85
2021/03/20 00:10:26;;;;;;;5.77;4.70;;;21.80;50.90;;;;;;5035831;28;20180;-85
2021/03/20 00:12:52;;;;;;;5.67;4.43;;;21.70;50.20;;;;;;5018975;28;20485;-85
2021/03/20 00:15:28;;;;;;;5.73;4.77;;;21.80;50.30;;;;;;5019359;28;20510;-85
2021/03/20 00:17:55;;;;;;;5.70;4.40;;;21.80;50.80;;;;;;5007368;28;20424;-84
2021/03/20 00:20:26;;;;;;;5.80;4.20;;;21.80;50.40;;;;;;5010313;28;20507;-84
2021/03/20 00:22:52;;;;;;;5.20;4.57;;;21.70;50.90;;;;;;5019816;28;20535;-84
2021/03/20 00:25:19;;;;;;;5.70;4.40;;;21.70;50.60;;;;;;5006362;28;20451;-84
2021/03/20 00:27:45;;;;;;;5.70;4.73;;;21.70;50.90;;;;;;5011723;28;20181;-84
2021/03/20 00:30:11;;;;;;;5.87;4.60;;;21.70;50.60;;;;;;5018887;28;20527;-85
2021/03/20 00:32:37;;;;;;;6.20;4.83;;;21.70;50.60;;;;;;5012352;28;20419;-84
2021/03/20 00:35:05;;;;;;;4.87;4.37;;;21.70;51.10;;;;;;5006860;28;20567;-84
2021/03/20 00:37:31;;;;;;;6.20;4.93;;;21.70;50.60;;;;;;5019665;28;20447;-84
2021/03/20 00:39:57;;;;;;;5.37;4.87;;;21.70;50.50;;;;;;5014599;28;20428;-84
2021/03/20 00:42:23;;;;;;;4.97;4.37;;;21.70;50.70;;;;;;5016846;28;20472;-84
2021/03/20 00:44:49;;;;;;;5.90;4.40;;;21.70;50.90;;;;;;5011946;28;20496;-85
2021/03/20 00:47:14;;;;;;;5.13;4.20;;;21.50;50.60;;;;;;5007939;28;20199;-85
2021/03/20 00:49:40;;;;;;;4.87;4.30;;;21.70;50.90;;;;;;5010296;28;20256;-85
2021/03/20 00:52:06;;;;;;;6.00;5.37;;;21.70;51.10;;;;;;5025716;28;20275;-85
2021/03/20 00:54:32;;;;;;;6.20;4.50;;;21.60;50.70;;;;;;5022696;28;20185;-85
2021/03/20 00:56:58;;;;;;;5.50;4.77;;;21.70;51.20;;;;;;5011709;28;20173;-85
2021/03/20 00:59:23;;;;;;;5.10;4.10;;;21.60;50.50;;;;;;5010653;28;20240;-85
2021/03/20 01:01:49;;;;;;;6.53;5.10;;;21.70;50.80;;;;;;5008275;28;20203;-85
2021/03/20 01:04:15;;;;;;;5.30;4.50;;;21.60;50.90;;;;;;5007110;28;20200;-85
2021/03/20 01:06:41;;;;;;;4.50;3.97;;;21.60;50.60;;;;;;5007692;28;20184;-85
2021/03/20 01:09:07;;;;;;;6.23;4.77;;;21.60;50.40;;;;;;5006581;28;20180;-84
2021/03/20 01:11:33;;;;;;;5.60;4.27;;;21.60;50.80;;;;;;5005596;28;20435;-85
2021/03/20 01:13:59;;;;;;;4.87;4.40;;;21.60;50.70;;;;;;5006186;28;20420;-85
2021/03/20 01:16:28;;;;;;;4.37;3.70;;;21.60;50.70;;;;;;5007088;28;20251;-85
2021/03/20 01:18:55;;;;;;;4.90;4.07;;;21.60;50.30;;;;;;5006722;28;20431;-85
2021/03/20 01:21:22;;;;;;;4.93;4.17;;;21.60;50.30;;;;;;5005564;28;20899;-85
2021/03/20 01:23:48;;;;;;;5.47;4.40;;;21.60;50.40;;;;;;5007493;28;20409;-85
2021/03/20 01:26:13;;;;;;;6.13;4.40;;;21.60;51.00;;;;;;5005084;28;20933;-86
2021/03/20 01:28:40;;;;;;;4.87;4.10;;;21.60;51.20;;;;;;5005122;28;20177;-85
2021/03/20 01:31:07;;;;;;;5.03;4.07;;;21.60;50.40;;;;;;5026003;28;20502;-85
2021/03/20 01:33:33;;;;;;;4.60;4.10;;;21.60;50.50;;;;;;5025271;28;20427;-84
2021/03/20 01:35:59;;;;;;;4.67;4.17;;;21.60;51.00;;;;;;5024853;28;20435;-84
2021/03/20 01:38:26;;;;;;;4.03;3.23;;;21.60;50.80;;;;;;5024886;28;20220;-84
2021/03/20 01:41:05;;;;;;;4.77;4.00;;;21.60;50.60;;;;;;5025271;28;20184;-84
2021/03/20 01:43:32;;;;;;;4.73;3.70;;;21.60;50.40;;;;;;5024173;28;20455;-84
2021/03/20 01:46:37;;;;;;;3.80;3.40;;;21.60;50.40;;;;;;5015196;28;20424;-86
2021/03/20 01:49:19;;;;;;;5.13;3.83;;;21.60;50.20;;;;;;5033197;28;20570;-85
2021/03/20 01:52:34;;;;;;;4.20;3.80;;;21.60;50.30;;;;;;5024169;28;20426;-85
2021/03/20 01:55:14;;;;;;;5.00;4.47;;;21.60;50.30;;;;;;5005163;28;20421;-85
2021/03/20 01:57:48;;;;;;;4.73;3.93;;;21.50;50.20;;;;;;5028051;28;20419;-85
2021/03/20 02:00:37;;;;;;;6.90;4.37;;;21.50;50.20;;;;;;5024054;28;20427;-85
2021/03/20 02:03:07;;;;;;;4.70;3.90;;;21.50;50.20;;;;;;5041255;28;20565;-85
2021/03/20 02:05:33;;;;;;;4.77;3.93;;;21.50;50.40;;;;;;5044811;28;20456;-85
2021/03/20 02:08:07;;;;;;;6.00;3.77;;;21.50;50.30;;;;;;5047559;28;20446;-85
2021/03/20 02:10:36;;;;;;;4.30;3.77;;;21.50;50.40;;;;;;5044162;28;20514;-85
2021/03/20 02:13:26;;;;;;;5.30;4.00;;;21.50;50.50;;;;;;5018749;28;20423;-85
2021/03/20 02:15:59;;;;;;;5.10;4.00;;;21.50;50.20;;;;;;5046528;28;20426;-85
2021/03/20 02:18:43;;;;;;;4.57;3.80;;;21.30;50.10;;;;;;5043307;28;20433;-85
2021/03/20 02:21:48;;;;;;;4.93;3.50;;;21.60;50.30;;;;;;5046420;28;20460;-86
2021/03/20 02:24:44;;;;;;;4.40;3.70;;;21.60;50.30;;;;;;5023371;28;20419;-86
2021/03/20 02:27:40;;;;;;;4.83;4.30;;;21.50;50.20;;;;;;5024943;28;20411;-86
2021/03/20 02:30:39;;;;;;;4.40;3.33;;;21.50;50.20;;;;;;5041344;28;20414;-86
2021/03/20 02:33:34;;;;;;;5.30;3.70;;;21.50;50.20;;;;;;5006121;28;20414;-86
2021/03/20 02:36:19;;;;;;;5.90;4.50;;;21.50;50.30;;;;;;5027131;28;20494;-86
2021/03/20 02:38:50;;;;;;;4.67;2.87;;;21.50;50.80;;;;;;5042469;28;20414;-85
2021/03/20 02:41:29;;;;;;;3.70;3.40;;;21.50;50.40;;;;;;5004293;28;20444;-86
2021/03/20 02:44:18;;;;;;;3.60;2.83;;;21.50;50.40;;;;;;5004618;28;20424;-85
2021/03/20 02:47:03;;;;;;;3.43;3.13;;;21.50;50.20;;;;;;5004023;28;20483;-85
2021/03/20 02:49:57;;;;;;;4.60;3.30;;;21.50;50.20;;;;;;5006334;28;20393;-85
2021/03/20 02:52:50;;;;;;;3.73;3.40;;;21.50;50.20;;;;;;5004429;28;20412;-85
2021/03/20 02:55:36;;;;;;;4.10;3.40;;;21.50;50.20;;;;;;5004850;28;20931;-85
2021/03/20 02:58:10;;;;;;;3.63;3.27;;;21.50;50.30;;;;;;5004658;28;20427;-85
2021/03/20 03:00:45;;;;;;;4.40;3.40;;;21.50;50.20;;;;;;5003846;28;20426;-85
2021/03/20 03:03:14;;;;;;;3.47;3.17;;;21.50;50.40;;;;;;5005755;28;20443;-85
2021/03/20 03:05:49;;;;;;;4.20;3.33;;;21.50;50.50;;;;;;5007250;28;20496;-85
2021/03/20 03:08:27;;;;;;;4.60;3.60;;;21.50;50.30;;;;;;5008659;28;20412;-85
2021/03/20 03:11:04;;;;;;;3.90;3.30;;;21.50;50.20;;;;;;5009510;28;20396;-84
2021/03/20 03:13:34;;;;;;;3.80;3.20;;;21.50;50.20;;;;;;5008576;28;20445;-84
2021/03/20 03:16:09;;;;;;;4.80;2.83;;;21.50;50.50;;;;;;5008116;28;20424;-86
2021/03/20 03:18:44;;;;;;;4.20;3.80;;;21.40;50.20;;;;;;5009180;28;20406;-86
2021/03/20 03:21:12;;;;;;;3.37;3.07;;;21.50;50.50;;;;;;5008471;28;20412;-86
2021/03/20 03:23:41;;;;;;;4.00;3.10;;;21.40;50.40;;;;;;5007864;28;20510;-85
2021/03/20 03:26:31;;;;;;;3.50;3.10;;;21.50;50.30;;;;;;5008809;28;20436;-86
2021/03/20 03:29:10;;;;;;;4.90;3.70;;;21.40;50.30;;;;;;5009245;28;20416;-85
2021/03/20 03:32:14;;;;;;;3.43;3.00;;;21.40;50.30;;;;;;5010935;28;20416;-86
2021/03/20 03:34:57;;;;;;;3.83;3.10;;;21.40;50.20;;;;;;5019714;28;20425;-86
2021/03/20 03:37:55;;;;;;;4.43;2.93;;;21.40;50.30;;;;;;5033157;28;20427;-86
2021/03/20 03:40:34;;;;;;;3.87;3.33;;;21.10;50.10;;;;;;5031723;28;20426;-86
2021/03/20 03:43:02;;;;;;;4.10;3.47;;;21.40;50.30;;;;;;5034095;28;20478;-86
2021/03/20 03:45:28;;;;;;;5.40;2.90;;;21.40;50.70;;;;;;5033149;28;20419;-86
2021/03/20 03:48:00;;;;;;;3.70;3.13;;;21.40;51.10;;;;;;5031850;28;20418;-85
2021/03/20 03:50:33;;;;;;;3.50;3.00;;;21.30;50.30;;;;;;5029382;28;20485;-85
2021/03/20 03:53:00;;;;;;;4.43;3.57;;;21.30;50.40;;;;;;5015869;28;20957;-86
2021/03/20 03:55:26;;;;;;;3.90;3.33;;;21.30;50.50;;;;;;5007075;28;20428;-86
2021/03/20 03:58:11;;;;;;;3.83;3.00;;;21.20;51.20;;;;;;5020943;28;20442;-86
2021/03/20 04:00:43;;;;;;;3.23;2.93;;;21.30;50.40;;;;;;5026335;28;20204;-85
2021/03/20 04:03:11;;;;;;;4.73;3.40;;;21.30;50.70;;;;;;5027120;28;20462;-85
2021/03/20 04:06:02;;;;;;;4.03;3.27;;;21.30;50.40;;;;;;5026529;28;20951;-85
2021/03/20 04:08:46;;;;;;;3.50;3.13;;;21.30;50.30;;;;;;5027232;28;20426;-85
2021/03/20 04:11:18;;;;;;;3.20;2.73;;;21.30;50.40;;;;;;5010965;28;20486;-85
2021/03/20 04:13:49;;;;;;;3.00;2.70;;;21.30;50.80;;;;;;5006978;28;20419;-85
2021/03/20 04:16:20;;;;;;;3.60;2.87;;;21.30;50.40;;;;;;5006478;28;20416;-85
2021/03/20 04:19:51;;;;;;;3.03;2.47;;;21.30;50.60;;;;;;5006313;28;20427;-85
2021/03/20 04:23:02;;;;;;;3.57;2.83;;;21.30;50.30;;;;;;4989867;28;20452;-84
2021/03/20 04:25:49;;;;;;;3.57;3.27;;;21.30;50.40;;;;;;4995481;28;20428;-86
2021/03/20 04:28:42;;;;;;;3.53;2.73;;;21.30;50.70;;;;;;5009613;28;20406;-86
2021/03/20 04:31:23;;;;;;;4.27;3.03;;;21.30;50.90;;;;;;5006626;28;20891;-86
2021/03/20 04:34:19;;;;;;;3.67;3.20;;;21.30;50.40;;;;;;5005044;28;20408;-86
2021/03/20 04:37:08;;;;;;;3.07;2.73;;;21.30;50.40;;;;;;5006016;28;20472;-86
2021/03/20 04:39:40;;;;;;;2.87;2.57;;;21.30;50.60;;;;;;5007102;28;20412;-86
2021/03/20 04:42:07;;;;;;;2.70;2.43;;;21.30;50.50;;;;;;5007181;28;20459;-85
2021/03/20 04:45:44;;;;;;;;;;;;;;;;;;;;;
2021/03/20 04:48:20;;;;;;;3.27;2.93;;;21.30;50.30;;;;;;4986502;28;20499;-85
2021/03/20 04:50:50;;;;;;;4.97;2.90;;;21.20;50.40;;;;;;5006003;28;20408;-86
2021/03/20 04:53:16;;;;;;;3.40;3.03;;;21.20;50.70;;;;;;5007436;28;20420;-85
2021/03/20 04:55:43;;;;;;;3.13;2.57;;;21.20;50.70;;;;;;5010519;28;20420;-85
2021/03/20 04:58:39;;;;;;;3.00;2.30;;;21.20;50.90;;;;;;5006736;28;20420;-85
2021/03/20 05:01:24;;;;;;;3.47;3.17;;;21.30;50.90;;;;;;5009591;28;20400;-85
2021/03/20 05:04:08;;;;;;;4.57;3.03;;;21.20;50.40;;;;;;5010176;28;20447;-84
2021/03/20 05:06:35;;;;;;;3.20;2.80;;;21.20;50.60;;;;;;5006744;28;20419;-84
2021/03/20 05:09:04;;;;;;;7.50;3.43;;;21.20;50.80;;;;;;5011822;28;20411;-84
2021/03/20 05:11:36;;;;;;;2.90;2.60;;;21.20;50.60;;;;;;5007322;28;20404;-84
2021/03/20 05:14:17;;;;;;;4.70;2.27;;;21.20;50.60;;;;;;5005253;28;20427;-85
2021/03/20 05:16:52;;;;;;;3.67;2.77;;;21.20;50.60;;;;;;5005963;28;20407;-85
2021/03/20 05:19:20;;;;;;;4.33;3.07;;;21.20;50.40;;;;;;5007040;28;20439;-84
2021/03/20 05:21:50;;;;;;;3.17;2.60;;;21.00;50.30;;;;;;5006861;28;20523;-85
2021/03/20 05:24:32;;;;;;;3.00;2.37;;;21.20;50.50;;;;;;5006407;28;20745;-86
2021/03/20 05:26:59;;;;;;;3.20;2.57;;;21.30;50.70;;;;;;5008199;28;20395;-85
2021/03/20 05:29:26;;;;;;;3.30;2.50;;;21.20;50.40;;;;;;5025959;28;20530;-85
2021/03/20 05:31:54;;;;;;;2.90;2.40;;;21.20;50.90;;;;;;5045577;28;20414;-85
2021/03/20 05:34:29;;;;;;;3.60;2.87;;;21.30;50.50;;;;;;5044499;28;20505;-85
2021/03/20 05:36:55;;;;;;;3.57;2.83;;;21.30;50.30;;;;;;5044852;28;20428;-85
2021/03/20 05:39:23;;;;;;;3.23;2.50;;;21.30;50.90;;;;;;5046007;28;20411;-85
2021/03/20 05:42:13;;;;;;;3.10;2.50;;;21.30;50.30;;;;;;5044335;28;20461;-85
2021/03/20 05:44:40;;;;;;;3.20;2.87;;;21.30;50.60;;;;;;5028175;28;20510;-85
2021/03/20 05:47:35;;;;;;;2.80;2.40;;;21.30;50.90;;;;;;5021401;28;20813;-85
2021/03/20 05:50:32;;;;;;;3.10;2.77;;;21.30;50.20;;;;;;5005493;28;20621;-85
2021/03/20 05:53:28;;;;;;;2.80;2.50;;;21.30;50.10;;;;;;5020873;28;20413;-85
2021/03/20 05:55:56;;;;;;;3.00;2.57;;;21.30;50.10;;;;;;5021581;28;20412;-85
2021/03/20 05:58:59;;;;;;;2.17;1.93;;;21.40;50.30;;;;;;5021568;28;20416;-84
2021/03/20 06:01:43;;;;;;;3.30;2.80;;;21.40;50.10;;;;;;5022179;28;20426;-84
2021/03/20 06:04:09;;;;;;;2.70;2.37;;;21.40;50.10;;;;;;5021464;28;20432;-86
2021/03/20 06:07:04;;;;;;;2.63;2.43;;;21.40;51.10;;;;;;5006160;28;20983;-84
2021/03/20 06:10:08;;;;;;;2.30;2.10;;;21.40;50.00;;;;;;5006151;28;20185;-85
2021/03/20 06:13:15;;;;;;;2.40;2.10;;;21.40;50.00;;;;;;5027425;28;20479;-85
2021/03/20 06:16:18;;;;;;;2.80;2.20;;;21.40;50.00;;;;;;5007014;28;20408;-86
2021/03/20 06:19:04;;;;;;;2.80;2.43;;;21.50;50.10;;;;;;5009752;28;20410;-86
2021/03/20 06:21:44;;;;;;;2.77;2.43;;;21.40;50.00;;;;;;5008250;28;20432;-86
2021/03/20 06:24:44;;;;;;;2.60;2.30;;;21.50;50.10;;;;;;5025220;28;20443;-86
2021/03/20 06:27:15;;;;;;;3.13;2.37;;;21.50;50.00;;;;;;5022680;28;20419;-86
2021/03/20 06:30:04;;;;;;;4.10;2.50;;;21.50;50.30;;;;;;5022733;28;20404;-86
2021/03/20 06:32:40;;;;;;;2.47;2.27;;;21.50;50.00;;;;;;5007410;28;20400;-86
2021/03/20 06:35:15;;;;;;;2.57;2.00;;;21.50;50.10;;;;;;5007320;28;20400;-86
2021/03/20 06:37:50;;;;;;;2.43;1.90;;;21.50;50.80;;;;;;5022799;28;20415;-86
2021/03/20 06:40:29;;;;;;;2.83;2.30;;;21.50;50.20;;;;;;5025401;28;20435;-88
2021/03/20 06:42:58;;;;;;;2.80;2.23;;;21.50;49.90;;;;;;5010568;28;20491;-86
2021/03/20 06:45:27;;;;;;;3.03;2.40;;;21.50;50.20;;;;;;5026804;28;20440;-86
2021/03/20 06:48:00;;;;;;;2.50;2.03;;;21.50;50.10;;;;;;5026488;28;20420;-84
2021/03/20 06:50:49;;;;;;;2.80;2.30;;;21.50;50.10;;;;;;5026514;28;20781;-86
2021/03/20 06:53:17;;;;;;;3.50;2.27;;;21.60;50.20;;;;;;5026428;28;20408;-85
2021/03/20 06:55:48;;;;;;;2.97;2.50;;;21.70;50.20;;;;;;5011068;28;20418;-85
2021/03/20 06:58:32;;;;;;;2.87;2.10;;;21.60;50.20;;;;;;5026681;28;20412;-85
2021/03/20 07:01:24;;;;;;;2.53;2.33;;;21.60;49.90;;;;;;5026072;28;20415;-87
2021/03/20 07:04:17;;;;;;;2.80;2.10;;;21.60;50.10;;;;;;5029739;28;20458;-86
2021/03/20 07:07:04;;;;;;;2.97;2.30;;;21.60;49.90;;;;;;5026409;28;20404;-85
2021/03/20 07:09:31;;;;;;;2.77;2.20;;;21.60;49.90;;;;;;5025588;28;20829;-85
2021/03/20 07:12:11;;;;;;;2.83;2.30;;;21.60;50.00;;;;;;5009685;28;20401;-86
2021/03/20 07:14:53;;;;;;;2.63;2.17;;;21.60;50.00;;;;;;5009850;28;20878;-86
2021/03/20 07:17:26;;;;;;;2.40;2.20;;;21.60;50.30;;;;;;5014080;28;20435;-86
2021/03/20 07:20:08;;;;;;;2.30;1.83;;;21.60;49.90;;;;;;5012269;28;20400;-86
2021/03/20 07:22:42;;;;;;;2.70;2.50;;;21.60;49.80;;;;;;5011510;28;20458;-86
2021/03/20 07:25:29;;;;;;;3.07;2.37;;;21.60;49.80;;;;;;5014558;28;20384;-86
2021/03/20 07:28:10;;;;;;;2.20;1.70;;;21.50;50.40;;;;;;5024484;28;20470;-85
2021/03/20 07:30:59;;;;;;;2.40;2.03;;;21.60;50.40;;;;;;5028495;28;20408;-85
2021/03/20 07:33:35;;;;;;;3.00;2.67;;;21.60;49.80;;;;;;5026103;28;20426;-85
2021/03/20 07:36:29;;;;;;;2.40;1.70;;;21.60;49.80;;;;;;5009405;28;20775;-84
2021/03/20 07:39:07;;;;;;;3.30;2.10;;;21.70;49.80;;;;;;5025315;28;20419;-84
2021/03/20 07:41:50;;;;;;;2.60;1.83;;;21.60;50.30;;;;;;5010392;28;20423;-84
2021/03/20 07:44:17;;;;;;;3.40;2.27;;;21.60;49.70;;;;;;5009294;28;20451;-86
2021/03/20 07:46:43;;;;;;;3.37;2.20;;;21.60;50.20;;;;;;5026240;28;20826;-86
2021/03/20 07:49:32;;;;;;;2.77;2.27;;;21.70;49.90;;;;;;5025253;28;20466;-86
2021/03/20 07:52:30;;;;;;;3.63;2.20;;;21.70;49.70;;;;;;5008520;28;20424;-86
2021/03/20 07:55:16;;;;;;;2.90;2.00;;;21.70;49.70;;;;;;5008789;28;20416;-86
2021/03/20 07:57:51;;;;;;;2.40;1.93;;;21.60;49.70;;;;;;5024933;28;20439;-85
2021/03/20 08:00:35;;;;;;;3.13;1.77;;;21.60;50.00;;;;;;5009029;28;20407;-86
2021/03/20 08:03:24;;;;;;;2.53;2.10;;;21.70;49.80;;;;;;5009675;28;20439;-85
2021/03/20 08:06:12;;;;;;;3.07;2.10;;;21.60;49.70;;;;;;5024730;28;20429;-86
2021/03/20 08:08:38;;;;;;;3.37;2.20;;;21.60;49.80;;;;;;5024795;28;20408;-86
2021/03/20 08:11:05;;;;;;;3.53;2.20;;;21.60;50.20;;;;;;5007977;28;20759;-86
2021/03/20 08:13:44;;;;;;;5.03;2.00;;;21.60;49.90;;;;;;5009214;28;20511;-86
2021/03/20 08:16:12;;;;;;;3.93;1.70;;;21.70;49.90;;;;;;5007999;28;20932;-86
2021/03/20 08:18:47;;;;;;;8.00;2.37;;;21.70;49.90;;;;;;5024133;28;20431;-87
2021/03/20 08:21:27;;;;;;;2.83;2.50;;;21.70;49.70;;;;;;5022870;28;20412;-86
2021/03/20 08:24:02;;;;;;;3.83;1.97;;;21.70;49.60;;;;;;5007379;28;20930;-86
2021/03/20 08:26:27;;;;;;;2.87;2.20;;;21.70;50.00;;;;;;5008716;28;20403;-85
2021/03/20 08:28:59;;;;;;;2.20;2.00;;;21.70;49.80;;;;;;5023639;28;20409;-85
2021/03/20 08:32:00;;;;;;;2.47;1.83;;;21.70;49.50;;;;;;5023425;28;20223;-84
2021/03/20 08:35:07;;;;;;;2.00;1.70;;;21.70;49.50;;;;;;5027001;28;20447;-88
2021/03/20 08:38:05;;;;;;;2.10;1.90;;;21.70;49.50;;;;;;5025532;28;20416;-84
2021/03/20 08:40:43;;;;;;;3.37;1.93;;;21.70;49.60;;;;;;5029201;28;20412;-84
2021/03/20 08:43:18;;;;;;;2.30;1.90;;;21.60;49.60;;;;;;5026565;28;20475;-85
2021/03/20 08:46:21;;;;;;;3.03;1.70;;;21.60;49.50;;;;;;5013115;28;20415;-84
2021/03/20 08:49:20;;;;;;;2.73;2.40;;;21.70;49.50;;;;;;5044152;22;20416;-69
2021/03/20 08:51:55;;;;;;;2.60;2.30;;;21.70;49.50;;;;;;4993897;28;20464;-69
2021/03/20 08:54:45;;;;;;;2.00;1.50;;;21.60;49.50;;;;;;4995064;28;20416;-70
2021/03/20 08:57:38;;;;;;;2.93;2.00;;;21.70;49.50;;;;;;4995222;28;20824;-70
2021/03/20 09:00:20;;;;;;;2.43;1.70;;;21.70;49.50;;;;;;5010322;28;20516;-69
2021/03/20 09:02:48;;;;;;;2.83;1.90;;;21.70;49.50;;;;;;4994322;28;20842;-69
2021/03/20 09:05:27;;;;;;;3.30;2.23;;;21.70;49.50;;;;;;4994815;28;20412;-69
2021/03/20 09:07:58;;;;;;;2.53;2.00;;;21.70;49.40;;;;;;4994729;28;20767;-69
2021/03/20 09:10:33;;;;;;;2.47;2.00;;;21.70;49.40;;;;;;4993984;28;20536;-68
2021/03/20 09:13:18;;;;;;;2.43;1.63;;;21.70;49.90;;;;;;4995065;28;20542;-68
2021/03/20 09:15:50;;;;;;;2.40;1.90;;;21.80;49.40;;;;;;4994606;28;20397;-69
2021/03/20 09:18:17;;;;;;;1.87;1.60;;;21.70;49.40;;;;;;4994809;28;20401;-69
2021/03/20 09:20:59;;;;;;;2.23;1.67;;;21.80;49.40;;;;;;4995055;28;20904;-69
2021/03/20 09:23:35;;;;;;;3.77;1.70;;;21.80;49.40;;;;;;4974987;28;20513;-70
2021/03/20 09:26:05;;;;;;;2.70;1.80;;;21.80;49.40;;;;;;4992507;28;20431;-69
2021/03/20 09:28:51;;;;;;;3.00;2.30;;;21.80;49.40;;;;;;4994920;28;20458;-69
2021/03/20 09:31:29;;;;;;;2.63;1.73;;;21.80;49.40;;;;;;4990150;28;20436;-69
2021/03/20 09:33:56;;;;;;;2.03;1.47;;;21.80;49.40;;;;;;4994225;28;20795;-69
2021/03/20 09:36:22;;;;;;;2.10;1.50;;;21.80;49.40;;;;;;4994506;28;20411;-70
2021/03/20 09:38:53;;;;;;;2.63;1.63;;;21.80;49.40;;;;;;4994130;28;20804;-70
2021/03/20 09:41:18;;;;;;;2.93;1.73;;;21.80;49.40;;;;;;4993802;28;20179;-69
2021/03/20 09:43:59;;;;;;;4.80;1.70;;;21.80;49.40;;;;;;4994103;28;20503;-68
2021/03/20 09:46:27;;;;;;;3.17;2.00;;;21.80;49.40;;;;;;4992847;28;20231;-68
2021/03/20 09:48:54;;;;;;;2.50;1.53;;;21.80;49.50;;;;;;4992995;28;20425;-69
2021/03/20 09:52:09;;;;;;;5.00;2.07;;;21.80;49.40;;;;;;4993442;28;20428;-69
2021/03/20 09:54:41;;;;;;;2.17;1.70;;;21.80;49.40;;;;;;4988146;28;20458;-69
2021/03/20 09:57:08;;;;;;;5.10;1.67;;;21.80;49.40;;;;;;4993802;28;20416;-69
2021/03/20 09:59:34;;;;;;;2.50;1.47;;;21.80;49.40;;;;;;4993769;28;20420;-70
2021/03/20 10:02:11;;;;;;;2.60;1.70;;;21.80;49.40;;;;;;4993753;28;20438;-69
2021/03/20 10:04:58;;;;;;;3.17;1.73;;;21.80;49.40;;;;;;4994131;28;20157;-69
2021/03/20 10:07:24;;;;;;;3.37;1.40;;;21.90;49.50;;;;;;4994300;28;20387;-69
2021/03/20 10:09:58;;;;;;;2.20;1.37;;;21.80;49.40;;;;;;4993395;28;20416;-70
2021/03/20 10:12:26;;;;;;;1.90;1.30;;;21.80;49.40;;;;;;4993896;28;20914;-70
2021/03/20 10:15:03;;;;;;;2.03;1.50;;;21.90;49.40;;;;;;4993096;28;20419;-70
2021/03/20 10:17:32;;;;;;;3.67;2.27;;;21.80;49.40;;;;;;4993952;28;20481;-70
2021/03/20 10:20:17;;;;;;;1.70;1.30;;;21.80;49.30;;;;;;4993368;28;20983;-70
2021/03/20 10:22:56;;;;;;;1.70;1.40;;;21.90;49.40;;;;;;4993700;28;20470;-70
2021/03/20 10:25:23;;;;;;;2.03;1.60;;;21.90;49.40;;;;;;4993634;28;20450;-70
2021/03/20 10:27:59;;;;;;;2.43;1.80;;;21.90;49.40;;;;;;4993570;28;20409;-70
2021/03/20 10:30:29;;;;;;;2.13;1.50;;;21.90;49.40;;;;;;4993308;28;20424;-70
2021/03/20 10:33:07;;;;;;;2.33;1.70;;;21.90;49.40;;;;;;4993408;28;20558;-70
2021/03/20 10:35:37;;;;;;;2.30;1.73;;;21.90;49.40;;;;;;4993801;28;20807;-70
2021/03/20 10:38:16;;;;;;;1.37;1.27;;;21.90;49.40;;;;;;4993504;28;20432;-70
2021/03/20 10:40:42;;;;;;;2.57;1.43;;;21.90;49.30;;;;;;4991960;28;20424;-70
2021/03/20 10:43:12;;;;;;;1.43;1.23;;;21.90;49.30;;;;;;4992155;28;20479;-70
2021/03/20 10:45:41;;;;;;;2.63;1.50;;;21.90;49.30;;;;;;4992122;28;20947;-69
2021/03/20 10:48:22;;;;;;;3.13;1.60;;;21.90;49.80;;;;;;4993403;28;20946;-75
2021/03/20 10:50:55;;;;;;;1.53;1.23;;;21.90;49.20;;;;;;4991829;28;20577;-71
2021/03/20 10:53:27;;;;;;;1.53;1.43;;;21.90;49.30;;;;;;4993241;28;20539;-69
2021/03/20 10:55:56;;;;;;;1.63;1.30;;;21.90;49.30;;;;;;4993329;28;20404;-70
2021/03/20 10:58:48;;;;;;;2.97;1.90;;;21.90;49.30;;;;;;4993297;28;20753;-69
2021/03/20 11:01:15;;;;;;;2.13;1.73;;;21.90;49.10;;;;;;4991755;28;20427;-69
2021/03/20 11:03:43;;;;;;;2.17;1.43;;;21.80;49.00;;;;;;4993526;28;20408;-70
2021/03/20 11:06:19;;;;;;;4.10;1.83;;;21.90;49.00;;;;;;4993432;28;20451;-70
2021/03/20 11:09:06;;;;;;;2.07;1.40;;;21.90;49.10;;;;;;4993285;28;20829;-70
2021/03/20 11:11:37;;;;;;;1.70;1.40;;;21.90;49.10;;;;;;4991525;28;20456;-70
2021/03/20 11:14:21;;;;;;;2.20;1.43;;;21.90;49.20;;;;;;4993489;28;20446;-70
2021/03/20 11:16:48;;;;;;;2.33;1.60;;;21.90;49.20;;;;;;4993199;28;20405;-70
2021/03/20 11:19:35;;;;;;;2.10;1.30;;;21.90;49.20;;;;;;4992800;28;20415;-69
2021/03/20 11:22:16;;;;;;;2.40;1.53;;;21.90;49.20;;;;;;4972400;28;20493;-70
2021/03/20 11:24:44;;;;;;;1.70;1.30;;;21.90;49.20;;;;;;4973789;28;20456;-70
2021/03/20 11:27:18;;;;;;;2.43;1.40;;;21.80;49.20;;;;;;4976233;28;20417;-70
2021/03/20 11:29:46;;;;;;;1.83;1.43;;;21.90;49.80;;;;;;4981468;28;20455;-70
2021/03/20 11:32:33;;;;;;;1.90;1.47;;;21.80;49.20;;;;;;5011281;28;20460;-70
2021/03/20 11:35:12;;;;;;;1.30;1.07;;;21.90;49.20;;;;;;4996529;28;20415;-70
2021/03/20 11:37:38;;;;;;;2.00;1.73;;;21.90;49.20;;;;;;4996538;28;20777;-70
2021/03/20 11:40:07;;;;;;;1.60;1.30;;;21.80;49.20;;;;;;4995462;28;20424;-70
2021/03/20 11:42:38;;;;;;;1.33;1.03;;;21.90;49.20;;;;;;4995121;28;20494;-70
2021/03/20 11:45:18;;;;;;;2.07;1.50;;;21.90;49.20;;;;;;4996882;28;20397;-70
2021/03/20 11:47:53;;;;;;;2.87;1.73;;;21.90;49.20;;;;;;4996453;28;20392;-70
2021/03/20 11:50:30;;;;;;;1.43;1.10;;;21.90;49.20;;;;;;4996065;28;20439;-70
2021/03/20 11:53:17;;;;;;;3.30;1.77;;;21.90;49.20;;;;;;4996238;28;20470;-70
2021/03/20 11:55:43;;;;;;;2.47;1.30;;;21.90;49.20;;;;;;4996466;28;20443;-70
2021/03/20 11:58:23;;;;;;;2.83;1.60;;;21.90;49.30;;;;;;4995037;28;20788;-70
2021/03/20 12:00:49;;;;;;;1.57;1.03;;;21.90;49.20;;;;;;4996389;28;20389;-69
2021/03/20 12:03:28;;;;;;;3.27;1.40;;;21.90;49.20;;;;;;4995937;28;20458;-70
2021/03/20 12:06:19;;;;;;;2.23;1.40;;;21.90;49.20;;;;;;4996004;28;20391;-70
2021/03/20 12:08:48;;;;;;;1.63;1.30;;;21.90;49.20;;;;;;4995960;28;20447;-71
2021/03/20 12:11:20;;;;;;;2.33;1.17;;;21.90;49.20;;;;;;4995661;28;20431;-70
2021/03/20 12:13:46;;;;;;;1.90;1.33;;;21.90;49.20;;;;;;4996319;28;20540;-70
2021/03/20 12:16:30;;;;;;;2.40;1.43;;;21.90;49.20;;;;;;4995791;28;20966;-70
2021/03/20 12:19:22;;;;;;;2.30;1.33;;;21.90;49.20;;;;;;4996039;28;20169;-70
2021/03/20 12:22:05;;;;;;;3.20;1.63;;;21.90;49.20;;;;;;4994180;28;20484;-70
2021/03/20 12:24:42;;;;;;;2.57;1.37;;;21.90;49.40;;;;;;4995834;28;20844;-71
2021/03/20 12:27:35;;;;;;;1.87;1.37;;;21.90;49.20;;;;;;4994308;28;20420;-70
2021/03/20 12:30:23;;;;;;;1.53;1.27;;;21.90;49.20;;;;;;4995465;28;20389;-70
2021/03/20 12:32:51;;;;;;;1.70;1.50;;;21.80;49.20;;;;;;4995393;28;20550;-70
2021/03/20 12:35:17;;;;;;;2.07;1.43;;;21.80;49.20;;;;;;4995302;28;20783;-70
2021/03/20 12:38:03;;;;;;;2.40;1.30;;;21.80;49.20;;;;;;4994803;28;20409;-70
2021/03/20 12:40:30;;;;;;;1.20;1.00;;;21.90;49.30;;;;;;4994794;28;20184;-69
2021/03/20 12:42:59;;;;;;;1.87;1.10;;;21.80;49.20;;;;;;4993798;28;20981;-70
2021/03/20 12:45:27;;;;;;;3.97;1.47;;;21.90;49.30;;;;;;4995241;28;20544;-70
2021/03/20 12:47:52;;;;;;;2.43;1.40;;;21.90;49.30;;;;;;4995167;28;20412;-70
2021/03/20 12:50:18;;;;;;;1.20;1.03;;;21.80;49.20;;;;;;4994658;28;20494;-70
2021/03/20 12:52:44;;;;;;;1.50;1.20;;;21.80;49.20;;;;;;4994984;28;20205;-69
2021/03/20 12:55:11;;;;;;;2.20;1.40;;;21.90;49.30;;;;;;4995088;28;20252;-70
2021/03/20 12:57:37;;;;;;;1.20;0.97;;;21.80;49.20;;;;;;4995086;28;20695;-69
2021/03/20 13:00:21;;;;;;;1.80;1.30;;;21.90;49.30;;;;;;4993395;28;20491;-70
2021/03/20 13:02:47;;;;;;;1.93;1.20;;;21.90;49.30;;;;;;4994849;28;20523;-69
2021/03/20 13:05:23;;;;;;;1.70;1.23;;;21.90;49.30;;;;;;4993592;28;20768;-70
2021/03/20 13:07:49;;;;;;;1.50;1.20;;;21.90;49.30;;;;;;4994868;28;20729;-70
2021/03/20 13:10:15;;;;;;;1.77;1.07;;;21.80;49.20;;;;;;4994437;28;20438;-70
2021/03/20 13:12:40;;;;;;;1.90;1.63;;;21.90;49.30;;;;;;4994271;28;20232;-69
2021/03/20 13:15:07;;;;;;;2.93;1.60;;;21.90;49.30;;;;;;4994643;28;20440;-69
2021/03/20 13:17:34;;;;;;;2.37;1.40;;;21.90;49.20;;;;;;4994535;28;20252;-69
2021/03/20 13:20:00;;;;;;;1.90;1.53;;;21.90;49.20;;;;;;4994434;28;20409;-71
2021/03/20 13:22:25;;;;;;;1.17;0.90;;;21.90;49.20;;;;;;4994318;28;20542;-70
2021/03/20 13:24:52;;;;;;;1.60;1.20;;;21.90;49.20;;;;;;4994398;28;20435;-70
2021/03/20 13:27:17;;;;;;;1.70;1.30;;;21.90;49.20;;;;;;4993175;28;20188;-70
2021/03/20 13:29:43;;;;;;;1.73;1.50;;;21.90;49.20;;;;;;4994406;28;20417;-70
2021/03/20 13:32:09;;;;;;;3.10;2.07;;;21.90;49.20;;;;;;4992628;28;20295;-70
2021/03/20 13:34:34;;;;;;;1.90;1.50;;;21.90;49.20;;;;;;4994351;28;20216;-70
2021/03/20 13:37:00;;;;;;;1.47;1.07;;;21.90;49.20;;;;;;4994518;28;20887;-70